sensor_id;sensor_type;location;lat;lon;timestamp;P1;P2;P0
50827;PMS7003;36804;40.218;116.442;2023-03-23T12:30:33;28.00;7.50;3.50
50827;PMS7003;36804;40.218;116.442;2023-03-23T12:51:37;28.25;4.50;2.25
50827;PMS7003;36804;40.218;116.442;2023-03-23T13:01:52;30.75;7.25;4.00
50827;PMS7003;36804;40.218;116.442;2023-03-23T13:06:57;34.75;10.25;5.00
50827;PMS7003;36804;40.218;116.442;2023-03-23T13:12:01;28.75;7.75;3.75
50827;PMS7003;36804;40.218;116.442;2023-03-23T13:22:16;31.25;7.25;3.50
50827;PMS7003;36804;40.218;116.442;2023-03-23T13:27:25;26.25;8.75;5.25
50827;PMS7003;36804;40.218;116.442;2023-03-23T13:32:35;27.00;6.00;3.00
50827;PMS7003;36804;40.218;116.442;2023-03-23T13:37:44;33.00;7.75;3.25
50827;PMS7003;36804;40.218;116.442;2023-03-23T13:42:49;30.75;8.50;3.25
50827;PMS7003;36804;40.218;116.442;2023-03-23T13:48:03;24.50;6.25;3.00
50827;PMS7003;36804;40.218;116.442;2023-03-23T13:53:22;25.00;6.75;3.25
50827;PMS7003;36804;40.218;116.442;2023-03-23T13:58:25;28.00;7.75;3.75
50827;PMS7003;36804;40.218;116.442;2023-03-23T14:03:34;25.25;7.75;4.00
50827;PMS7003;36804;40.218;116.442;2023-03-23T14:08:40;23.00;7.25;2.00
50827;PMS7003;36804;40.218;116.442;2023-03-23T14:13:56;32.75;8.25;4.25
50827;PMS7003;36804;40.218;116.442;2023-03-23T14:19:01;23.50;7.00;2.00
50827;PMS7003;36804;40.218;116.442;2023-03-23T14:24:47;31.25;6.50;3.00
50827;PMS7003;36804;40.218;116.442;2023-03-23T14:29:31;23.50;7.50;2.00
50827;PMS7003;36804;40.218;116.442;2023-03-23T14:34:34;21.50;5.25;3.50
50827;PMS7003;36804;40.218;116.442;2023-03-23T14:39:37;26.50;7.00;3.50
50827;PMS7003;36804;40.218;116.442;2023-03-23T14:44:41;26.00;3.75;2.00
50827;PMS7003;36804;40.218;116.442;2023-03-23T14:49:45;24.75;6.75;3.00
50827;PMS7003;36804;40.218;116.442;2023-03-23T14:54:48;30.25;7.75;3.00
50827;PMS7003;36804;40.218;116.442;2023-03-23T14:59:52;24.00;6.25;2.25
50827;PMS7003;36804;40.218;116.442;2023-03-23T15:04:59;26.00;5.25;2.00
50827;PMS7003;36804;40.218;116.442;2023-03-23T15:10:07;24.50;6.00;2.75
50827;PMS7003;36804;40.218;116.442;2023-03-23T15:15:26;18.25;4.00;2.00
50827;PMS7003;36804;40.218;116.442;2023-03-23T15:20:48;19.50;6.00;2.00
50827;PMS7003;36804;40.218;116.442;2023-03-23T15:25:52;26.25;7.00;3.00
50827;PMS7003;36804;40.218;116.442;2023-03-23T15:30:56;30.75;6.00;2.25
50827;PMS7003;36804;40.218;116.442;2023-03-23T15:36:04;20.75;4.50;1.75
50827;PMS7003;36804;40.218;116.442;2023-03-23T15:41:21;24.25;4.00;2.00
50827;PMS7003;36804;40.218;116.442;2023-03-23T15:46:25;27.50;6.00;2.00
50827;PMS7003;36804;40.218;116.442;2023-03-23T15:51:29;21.75;5.75;2.00
50827;PMS7003;36804;40.218;116.442;2023-03-23T15:56:32;21.00;6.00;2.25
50827;PMS7003;36804;40.218;116.442;2023-03-23T16:01:37;24.00;4.25;2.00
50827;PMS7003;36804;40.218;116.442;2023-03-23T16:06:43;28.50;5.00;3.00
50827;PMS7003;36804;40.218;116.442;2023-03-23T16:11:53;20.25;5.50;2.00
50827;PMS7003;36804;40.218;116.442;2023-03-23T16:17:00;18.25;4.00;2.25
50827;PMS7003;36804;40.218;116.442;2023-03-23T16:22:09;20.00;5.00;2.00
50827;PMS7003;36804;40.218;116.442;2023-03-23T16:27:14;22.50;3.50;2.00
50827;PMS7003;36804;40.218;116.442;2023-03-23T16:32:20;21.00;3.00;2.00
50827;PMS7003;36804;40.218;116.442;2023-03-23T16:37:25;18.75;3.50;1.75
50827;PMS7003;36804;40.218;116.442;2023-03-23T16:42:30;20.75;4.00;2.00
50827;PMS7003;36804;40.218;116.442;2023-03-23T16:47:35;18.00;5.00;1.50
50827;PMS7003;36804;40.218;116.442;2023-03-23T16:52:41;18.00;3.25;2.00
50827;PMS7003;36804;40.218;116.442;2023-03-23T16:57:48;19.00;3.75;2.00
50827;PMS7003;36804;40.218;116.442;2023-03-23T17:03:10;17.75;4.75;1.00
50827;PMS7003;36804;40.218;116.442;2023-03-23T17:08:16;19.75;5.00;2.00
50827;PMS7003;36804;40.218;116.442;2023-03-23T17:13:22;17.50;3.75;1.75
50827;PMS7003;36804;40.218;116.442;2023-03-23T17:18:31;23.75;5.00;2.00
50827;PMS7003;36804;40.218;116.442;2023-03-23T17:23:36;16.75;3.75;1.00
50827;PMS7003;36804;40.218;116.442;2023-03-23T17:28:42;17.00;4.00;2.00
50827;PMS7003;36804;40.218;116.442;2023-03-23T17:33:47;18.25;3.50;1.00
50827;PMS7003;36804;40.218;116.442;2023-03-23T17:38:51;19.00;2.50;1.00
50827;PMS7003;36804;40.218;116.442;2023-03-23T17:43:57;21.75;4.25;3.00
50827;PMS7003;36804;40.218;116.442;2023-03-23T17:49:02;15.00;2.00;1.00
50827;PMS7003;36804;40.218;116.442;2023-03-23T17:54:07;17.00;2.00;1.00
50827;PMS7003;36804;40.218;116.442;2023-03-23T17:59:12;23.00;3.00;1.50
50827;PMS7003;36804;40.218;116.442;2023-03-23T18:04:17;19.75;3.75;2.00
50827;PMS7003;36804;40.218;116.442;2023-03-23T18:09:22;19.00;3.75;1.75
50827;PMS7003;36804;40.218;116.442;2023-03-23T18:14:27;18.25;4.00;1.00
50827;PMS7003;36804;40.218;116.442;2023-03-23T18:19:32;21.50;3.00;2.00
50827;PMS7003;36804;40.218;116.442;2023-03-23T18:24:37;19.75;2.00;2.00
50827;PMS7003;36804;40.218;116.442;2023-03-23T18:29:42;21.75;3.75;2.00
50827;PMS7003;36804;40.218;116.442;2023-03-23T18:34:47;16.75;3.00;1.00
50827;PMS7003;36804;40.218;116.442;2023-03-23T18:39:51;18.50;3.00;2.00
50827;PMS7003;36804;40.218;116.442;2023-03-23T18:44:58;17.75;3.25;1.00
50827;PMS7003;36804;40.218;116.442;2023-03-23T18:50:07;15.25;2.25;1.00
50827;PMS7003;36804;40.218;116.442;2023-03-23T18:55:12;19.00;4.00;1.25
50827;PMS7003;36804;40.218;116.442;2023-03-23T19:00:18;17.50;2.25;1.25
50827;PMS7003;36804;40.218;116.442;2023-03-23T19:05:24;21.50;4.00;1.00
50827;PMS7003;36804;40.218;116.442;2023-03-23T19:10:30;19.00;3.00;1.00
50827;PMS7003;36804;40.218;116.442;2023-03-23T19:15:38;16.25;3.50;1.75
50827;PMS7003;36804;40.218;116.442;2023-03-23T19:20:44;15.00;1.50;1.00
50827;PMS7003;36804;40.218;116.442;2023-03-23T19:26:15;16.25;2.75;1.00
50827;PMS7003;36804;40.218;116.442;2023-03-23T19:31:23;16.00;4.00;1.00
50827;PMS7003;36804;40.218;116.442;2023-03-23T19:36:28;26.75;3.00;1.00
50827;PMS7003;36804;40.218;116.442;2023-03-23T19:41:33;15.00;1.50;0.75
50827;PMS7003;36804;40.218;116.442;2023-03-23T19:46:38;17.25;3.25;2.75
50827;PMS7003;36804;40.218;116.442;2023-03-23T19:51:43;19.25;2.50;1.00
50827;PMS7003;36804;40.218;116.442;2023-03-23T19:56:47;23.50;3.00;1.00
50827;PMS7003;36804;40.218;116.442;2023-03-23T20:01:52;23.50;3.00;1.00
50827;PMS7003;36804;40.218;116.442;2023-03-23T20:06:57;24.75;5.00;1.00
50827;PMS7003;36804;40.218;116.442;2023-03-23T20:12:05;21.50;3.25;1.00
50827;PMS7003;36804;40.218;116.442;2023-03-23T20:17:10;20.75;2.50;1.00
50827;PMS7003;36804;40.218;116.442;2023-03-23T20:22:14;19.50;3.00;1.00
50827;PMS7003;36804;40.218;116.442;2023-03-23T20:27:20;17.50;3.00;0.75
50827;PMS7003;36804;40.218;116.442;2023-03-23T20:32:25;20.50;3.25;1.00
50827;PMS7003;36804;40.218;116.442;2023-03-23T20:37:32;18.00;4.75;1.00
50827;PMS7003;36804;40.218;116.442;2023-03-23T20:42:37;18.25;3.00;1.75
50827;PMS7003;36804;40.218;116.442;2023-03-23T20:47:43;23.50;5.00;1.75
50827;PMS7003;36804;40.218;116.442;2023-03-23T20:52:48;17.25;1.75;1.00
50827;PMS7003;36804;40.218;116.442;2023-03-23T20:57:53;15.75;2.75;1.00
50827;PMS7003;36804;40.218;116.442;2023-03-23T21:02:57;16.25;2.00;1.00
50827;PMS7003;36804;40.218;116.442;2023-03-23T21:08:02;17.25;3.00;1.00
50827;PMS7003;36804;40.218;116.442;2023-03-23T21:13:07;16.00;3.00;1.00
50827;PMS7003;36804;40.218;116.442;2023-03-23T21:18:13;19.00;2.00;1.00
50827;PMS7003;36804;40.218;116.442;2023-03-23T21:23:18;20.50;6.00;1.00
50827;PMS7003;36804;40.218;116.442;2023-03-23T21:28:23;22.25;3.75;1.50
50827;PMS7003;36804;40.218;116.442;2023-03-23T21:33:27;20.75;3.00;1.00
50827;PMS7003;36804;40.218;116.442;2023-03-23T21:38:33;20.00;3.75;2.00
50827;PMS7003;36804;40.218;116.442;2023-03-23T21:43:38;23.50;4.00;2.00
50827;PMS7003;36804;40.218;116.442;2023-03-23T21:48:44;21.00;3.00;1.00
50827;PMS7003;36804;40.218;116.442;2023-03-23T21:53:55;18.50;3.75;2.00
50827;PMS7003;36804;40.218;116.442;2023-03-23T21:59:00;21.00;4.00;1.50
50827;PMS7003;36804;40.218;116.442;2023-03-23T22:04:06;15.25;2.50;1.00
50827;PMS7003;36804;40.218;116.442;2023-03-23T22:09:12;26.75;3.75;1.00
50827;PMS7003;36804;40.218;116.442;2023-03-23T22:14:17;20.25;3.00;1.00
50827;PMS7003;36804;40.218;116.442;2023-03-23T22:19:22;17.25;2.00;1.00
50827;PMS7003;36804;40.218;116.442;2023-03-23T22:24:27;16.00;3.00;1.00
50827;PMS7003;36804;40.218;116.442;2023-03-23T22:29:31;16.75;2.00;1.00
50827;PMS7003;36804;40.218;116.442;2023-03-23T22:34:36;17.00;2.00;1.00
50827;PMS7003;36804;40.218;116.442;2023-03-23T22:39:41;15.25;2.25;1.50
50827;PMS7003;36804;40.218;116.442;2023-03-23T22:44:45;19.50;4.75;2.00
50827;PMS7003;36804;40.218;116.442;2023-03-23T22:49:50;19.50;3.25;1.00
50827;PMS7003;36804;40.218;116.442;2023-03-23T22:54:55;20.50;3.00;1.25
50827;PMS7003;36804;40.218;116.442;2023-03-23T23:00:00;21.00;2.50;1.75
50827;PMS7003;36804;40.218;116.442;2023-03-23T23:05:04;22.25;4.25;1.25
50827;PMS7003;36804;40.218;116.442;2023-03-23T23:10:10;26.00;4.50;1.75
50827;PMS7003;36804;40.218;116.442;2023-03-23T23:15:15;26.25;5.25;2.00
50827;PMS7003;36804;40.218;116.442;2023-03-23T23:20:19;17.50;2.25;1.00
50827;PMS7003;36804;40.218;116.442;2023-03-23T23:25:24;23.00;5.75;2.00
50827;PMS7003;36804;40.218;116.442;2023-03-23T23:30:30;21.00;5.25;3.25
50827;PMS7003;36804;40.218;116.442;2023-03-23T23:35:35;27.00;5.25;2.00
50827;PMS7003;36804;40.218;116.442;2023-03-23T23:40:40;24.25;4.75;2.50
50827;PMS7003;36804;40.218;116.442;2023-03-23T23:45:46;31.75;7.25;2.00
50827;PMS7003;36804;40.218;116.442;2023-03-23T23:50:51;22.50;4.50;2.00
50827;PMS7003;36804;40.218;116.442;2023-03-23T23:55:55;23.75;4.25;1.75
